Chiang Mai, Thailand

06:45 AM ICT on December 19, 2014 (GMT +0700)
ThaiWx Station | Change Station
CLOSE
Current Station
Personal Weather Stations
Location: Chiang Mai, Pa Daet
Elevation: 1007 ft
Nearby Weather Stations

Elev 1007 ft 18.77 °N, 98.97 °E | Updated 1 minute ago

Scattered Clouds
Växlande molnighet
64.6 °F
Feels Like 64.6 °F
N
0.0
Vind Växlande Vind from S/SO
Gusts 0.0 miles/tim

Idag
High -- | Low -- °F
--% Chance of Precip.
Yesterday
High -- | Low -- °F
Precip. -- tum
6:50 AM 5:51 PM
Fjärde kvarteret, 11% visible
Lufttryck 30.18 tum
Sikt 2.5 miles
Molnigt Mestadels molnigt 3500 ft
Växlande molnighet 11000 ft
Daggpunkt 59 °F
Luftfuktighet 81%
Rainfall 0.00 tum
Snow Depth Not available.
UV 0 out of 12
Pollen Not available.
Air Quality Not available.
Flu Activity Not available.
METAR VTCC 182330Z 16002KT 4000 BR BKN035 SCT110 17/15 Q1022 A3017 NOSIG

More Conditions Fewer Conditions

Lufttryck 30.18 tum
Sikt 2.5 miles
Molnigt Mestadels molnigt 3500 ft
Växlande molnighet 11000 ft
Daggpunkt 59 °F
Luftfuktighet 81%
Rainfall 0.00 tum
Snow Depth Not available.
UV 0 out of 12
Pollen Not available.
Air Quality Not available.
Flu Activity Not available.
METAR VTCC 182330Z 16002KT 4000 BR BKN035 SCT110 17/15 Q1022 A3017 NOSIG

More Conditions Fewer Conditions

10-Day Weather Forecast

Almanac

Astronomi

Dec. 19, 2014 Rise Set
Actual Time
Civil Twilight
Nautical Twilight
Astronomical Twilight
Månen
Length Of Visible Light
Dagens längd
Tomorrow will be .
, % of the Moon is Illuminated

Today's Extremes

Country Highs Country Lows

Community

WunderPhotos

Upload Photos

1,779,012 photos uploaded!

WunderBlogs® & News

Nearby

Air Quality

  Air Quality AQ Index Pollutant
Not available.

Snödjup

Station Depth Elevation

Earthquake Activity

Stad Distance Mag. Time & Date
Minimum magnitude displayed is 2.5.

Coastal Water Temperatures

Plats Temperatur

Nearby Weather Stations